sensor_id;sensor_type;location;lat;lon;timestamp;P1;durP1;ratioP1;P2;durP2;ratioP2
75937;SDS011;64615;32.062;34.834;2023-07-30T00:01:53;7.53;;;2.67;;
75937;SDS011;64615;32.062;34.834;2023-07-30T00:04:19;9.30;;;2.90;;
75937;SDS011;64615;32.062;34.834;2023-07-30T00:06:46;7.20;;;2.65;;
75937;SDS011;64615;32.062;34.834;2023-07-30T00:09:11;6.70;;;2.55;;
75937;SDS011;64615;32.062;34.834;2023-07-30T00:11:37;9.27;;;2.60;;
75937;SDS011;64615;32.062;34.834;2023-07-30T00:14:03;8.50;;;2.90;;
75937;SDS011;64615;32.062;34.834;2023-07-30T00:16:28;8.35;;;2.72;;
75937;SDS011;64615;32.062;34.834;2023-07-30T00:18:54;9.02;;;2.70;;
75937;SDS011;64615;32.062;34.834;2023-07-30T00:21:20;11.80;;;3.20;;
75937;SDS011;64615;32.062;34.834;2023-07-30T00:23:45;7.25;;;2.80;;
75937;SDS011;64615;32.062;34.834;2023-07-30T00:26:11;6.43;;;2.80;;
75937;SDS011;64615;32.062;34.834;2023-07-30T00:28:36;7.88;;;2.97;;
75937;SDS011;64615;32.062;34.834;2023-07-30T00:31:02;6.03;;;2.67;;
75937;SDS011;64615;32.062;34.834;2023-07-30T00:33:28;6.55;;;2.75;;
75937;SDS011;64615;32.062;34.834;2023-07-30T00:35:53;7.85;;;2.60;;
75937;SDS011;64615;32.062;34.834;2023-07-30T00:38:19;8.13;;;3.00;;
75937;SDS011;64615;32.062;34.834;2023-07-30T00:40:45;8.68;;;2.72;;
75937;SDS011;64615;32.062;34.834;2023-07-30T00:43:11;7.82;;;2.88;;
75937;SDS011;64615;32.062;34.834;2023-07-30T00:45:37;7.57;;;2.67;;
75937;SDS011;64615;32.062;34.834;2023-07-30T00:48:06;7.20;;;2.83;;
75937;SDS011;64615;32.062;34.834;2023-07-30T00:50:31;8.18;;;3.17;;
75937;SDS011;64615;32.062;34.834;2023-07-30T00:52:58;7.65;;;2.65;;
75937;SDS011;64615;32.062;34.834;2023-07-30T00:55:24;6.40;;;2.60;;
75937;SDS011;64615;32.062;34.834;2023-07-30T00:57:50;6.13;;;2.33;;
75937;SDS011;64615;32.062;34.834;2023-07-30T01:00:16;7.18;;;2.45;;
75937;SDS011;64615;32.062;34.834;2023-07-30T01:02:42;6.70;;;2.58;;
75937;SDS011;64615;32.062;34.834;2023-07-30T01:05:08;5.90;;;2.45;;
75937;SDS011;64615;32.062;34.834;2023-07-30T01:07:34;9.65;;;2.67;;
75937;SDS011;64615;32.062;34.834;2023-07-30T01:10:00;5.95;;;2.50;;
75937;SDS011;64615;32.062;34.834;2023-07-30T01:12:27;5.88;;;2.67;;
75937;SDS011;64615;32.062;34.834;2023-07-30T01:14:55;5.68;;;2.80;;
75937;SDS011;64615;32.062;34.834;2023-07-30T01:17:22;8.20;;;2.53;;
75937;SDS011;64615;32.062;34.834;2023-07-30T01:19:48;9.07;;;2.85;;
75937;SDS011;64615;32.062;34.834;2023-07-30T01:22:19;8.82;;;2.60;;
75937;SDS011;64615;32.062;34.834;2023-07-30T01:24:45;7.75;;;2.63;;
75937;SDS011;64615;32.062;34.834;2023-07-30T01:27:14;6.97;;;2.80;;
75937;SDS011;64615;32.062;34.834;2023-07-30T01:30:21;5.70;;;2.63;;
75937;SDS011;64615;32.062;34.834;2023-07-30T01:32:53;8.77;;;2.70;;
75937;SDS011;64615;32.062;34.834;2023-07-30T01:35:24;7.07;;;2.70;;
75937;SDS011;64615;32.062;34.834;2023-07-30T01:37:51;7.07;;;2.65;;
75937;SDS011;64615;32.062;34.834;2023-07-30T01:40:19;7.65;;;3.10;;
75937;SDS011;64615;32.062;34.834;2023-07-30T01:42:45;5.55;;;2.45;;
75937;SDS011;64615;32.062;34.834;2023-07-30T01:45:11;7.32;;;2.50;;
75937;SDS011;64615;32.062;34.834;2023-07-30T01:47:36;6.30;;;2.78;;
75937;SDS011;64615;32.062;34.834;2023-07-30T01:50:02;5.97;;;2.45;;
75937;SDS011;64615;32.062;34.834;2023-07-30T01:52:28;6.90;;;2.50;;
75937;SDS011;64615;32.062;34.834;2023-07-30T01:54:54;5.53;;;2.42;;
75937;SDS011;64615;32.062;34.834;2023-07-30T01:57:21;6.57;;;2.40;;
75937;SDS011;64615;32.062;34.834;2023-07-30T01:59:47;7.60;;;2.70;;
75937;SDS011;64615;32.062;34.834;2023-07-30T02:02:12;6.07;;;2.95;;
75937;SDS011;64615;32.062;34.834;2023-07-30T02:04:38;6.05;;;2.60;;
75937;SDS011;64615;32.062;34.834;2023-07-30T02:07:04;8.43;;;3.05;;
75937;SDS011;64615;32.062;34.834;2023-07-30T02:09:29;8.05;;;2.58;;
75937;SDS011;64615;32.062;34.834;2023-07-30T02:11:55;8.18;;;2.80;;
75937;SDS011;64615;32.062;34.834;2023-07-30T02:14:20;8.00;;;3.05;;
75937;SDS011;64615;32.062;34.834;2023-07-30T02:16:46;6.18;;;2.33;;
75937;SDS011;64615;32.062;34.834;2023-07-30T02:19:12;5.70;;;2.63;;
75937;SDS011;64615;32.062;34.834;2023-07-30T02:21:37;7.88;;;2.85;;
75937;SDS011;64615;32.062;34.834;2023-07-30T02:24:07;7.90;;;2.67;;
75937;SDS011;64615;32.062;34.834;2023-07-30T02:26:39;5.35;;;2.50;;
75937;SDS011;64615;32.062;34.834;2023-07-30T02:29:05;7.10;;;2.33;;
75937;SDS011;64615;32.062;34.834;2023-07-30T02:31:31;10.40;;;3.08;;
75937;SDS011;64615;32.062;34.834;2023-07-30T02:33:57;6.60;;;2.97;;
75937;SDS011;64615;32.062;34.834;2023-07-30T02:36:23;7.05;;;2.85;;
75937;SDS011;64615;32.062;34.834;2023-07-30T02:38:49;7.18;;;2.83;;
75937;SDS011;64615;32.062;34.834;2023-07-30T02:41:15;6.30;;;2.45;;
75937;SDS011;64615;32.062;34.834;2023-07-30T02:43:41;6.97;;;2.90;;
75937;SDS011;64615;32.062;34.834;2023-07-30T02:46:07;6.95;;;2.63;;
75937;SDS011;64615;32.062;34.834;2023-07-30T02:48:32;6.07;;;2.35;;
75937;SDS011;64615;32.062;34.834;2023-07-30T02:50:58;7.90;;;2.85;;
75937;SDS011;64615;32.062;34.834;2023-07-30T02:53:24;8.43;;;3.10;;
75937;SDS011;64615;32.062;34.834;2023-07-30T02:55:49;7.30;;;2.90;;
75937;SDS011;64615;32.062;34.834;2023-07-30T02:58:15;6.45;;;2.60;;
75937;SDS011;64615;32.062;34.834;2023-07-30T03:00:41;8.38;;;2.60;;
75937;SDS011;64615;32.062;34.834;2023-07-30T03:03:06;7.57;;;2.70;;
75937;SDS011;64615;32.062;34.834;2023-07-30T03:05:32;6.15;;;2.70;;
75937;SDS011;64615;32.062;34.834;2023-07-30T03:07:58;9.13;;;3.05;;
75937;SDS011;64615;32.062;34.834;2023-07-30T03:10:23;7.05;;;2.72;;
75937;SDS011;64615;32.062;34.834;2023-07-30T03:12:49;8.70;;;2.75;;
75937;SDS011;64615;32.062;34.834;2023-07-30T03:15:14;7.70;;;2.92;;
75937;SDS011;64615;32.062;34.834;2023-07-30T03:17:40;8.25;;;3.05;;
75937;SDS011;64615;32.062;34.834;2023-07-30T03:20:06;8.13;;;3.00;;
75937;SDS011;64615;32.062;34.834;2023-07-30T03:22:32;8.13;;;2.80;;
75937;SDS011;64615;32.062;34.834;2023-07-30T03:24:58;6.85;;;2.63;;
75937;SDS011;64615;32.062;34.834;2023-07-30T03:27:23;7.40;;;2.83;;
75937;SDS011;64615;32.062;34.834;2023-07-30T03:29:49;9.82;;;2.70;;
75937;SDS011;64615;32.062;34.834;2023-07-30T03:32:14;9.20;;;2.80;;
75937;SDS011;64615;32.062;34.834;2023-07-30T03:34:40;7.10;;;2.83;;
75937;SDS011;64615;32.062;34.834;2023-07-30T03:37:06;8.20;;;2.85;;
75937;SDS011;64615;32.062;34.834;2023-07-30T03:39:31;9.65;;;3.08;;
75937;SDS011;64615;32.062;34.834;2023-07-30T03:41:57;9.77;;;2.95;;
75937;SDS011;64615;32.062;34.834;2023-07-30T03:44:23;8.60;;;2.88;;
75937;SDS011;64615;32.062;34.834;2023-07-30T03:46:48;7.57;;;2.70;;
75937;SDS011;64615;32.062;34.834;2023-07-30T03:49:14;8.43;;;2.35;;
75937;SDS011;64615;32.062;34.834;2023-07-30T03:51:39;9.18;;;2.80;;
75937;SDS011;64615;32.062;34.834;2023-07-30T03:54:06;7.50;;;2.97;;
75937;SDS011;64615;32.062;34.834;2023-07-30T03:56:31;9.30;;;3.03;;
75937;SDS011;64615;32.062;34.834;2023-07-30T03:58:57;8.13;;;2.75;;
75937;SDS011;64615;32.062;34.834;2023-07-30T04:01:23;9.60;;;3.15;;
75937;SDS011;64615;32.062;34.834;2023-07-30T04:03:48;7.40;;;2.53;;
75937;SDS011;64615;32.062;34.834;2023-07-30T04:06:14;7.63;;;2.65;;
75937;SDS011;64615;32.062;34.834;2023-07-30T04:08:40;8.63;;;2.95;;
75937;SDS011;64615;32.062;34.834;2023-07-30T04:11:05;8.40;;;2.60;;
75937;SDS011;64615;32.062;34.834;2023-07-30T04:13:31;7.82;;;3.05;;
75937;SDS011;64615;32.062;34.834;2023-07-30T04:15:57;8.40;;;2.90;;
75937;SDS011;64615;32.062;34.834;2023-07-30T04:18:22;7.10;;;2.83;;
75937;SDS011;64615;32.062;34.834;2023-07-30T04:20:48;6.82;;;2.60;;
75937;SDS011;64615;32.062;34.834;2023-07-30T04:23:14;9.88;;;2.88;;
75937;SDS011;64615;32.062;34.834;2023-07-30T04:25:39;8.15;;;2.75;;
75937;SDS011;64615;32.062;34.834;2023-07-30T04:28:05;7.15;;;2.70;;
75937;SDS011;64615;32.062;34.834;2023-07-30T04:30:32;8.38;;;3.20;;
75937;SDS011;64615;32.062;34.834;2023-07-30T04:32:57;7.43;;;2.65;;
75937;SDS011;64615;32.062;34.834;2023-07-30T04:35:23;7.07;;;2.80;;
75937;SDS011;64615;32.062;34.834;2023-07-30T04:37:49;6.82;;;2.55;;
75937;SDS011;64615;32.062;34.834;2023-07-30T04:40:14;8.63;;;2.70;;
75937;SDS011;64615;32.062;34.834;2023-07-30T04:42:40;6.38;;;2.50;;
75937;SDS011;64615;32.062;34.834;2023-07-30T04:45:06;10.98;;;3.00;;
75937;SDS011;64615;32.062;34.834;2023-07-30T04:47:32;11.57;;;3.13;;
75937;SDS011;64615;32.062;34.834;2023-07-30T04:49:57;8.13;;;2.85;;
75937;SDS011;64615;32.062;34.834;2023-07-30T04:52:23;7.85;;;2.72;;
75937;SDS011;64615;32.062;34.834;2023-07-30T04:54:49;9.38;;;2.80;;
75937;SDS011;64615;32.062;34.834;2023-07-30T04:57:14;8.63;;;2.70;;
75937;SDS011;64615;32.062;34.834;2023-07-30T04:59:40;8.00;;;2.90;;
75937;SDS011;64615;32.062;34.834;2023-07-30T05:02:05;7.47;;;2.55;;
75937;SDS011;64615;32.062;34.834;2023-07-30T05:04:31;11.00;;;2.72;;
75937;SDS011;64615;32.062;34.834;2023-07-30T05:06:57;8.32;;;3.00;;
75937;SDS011;64615;32.062;34.834;2023-07-30T05:09:22;7.72;;;2.80;;
75937;SDS011;64615;32.062;34.834;2023-07-30T05:11:48;9.70;;;3.05;;
75937;SDS011;64615;32.062;34.834;2023-07-30T05:14:14;7.15;;;2.63;;
75937;SDS011;64615;32.062;34.834;2023-07-30T05:16:39;7.63;;;2.72;;
75937;SDS011;64615;32.062;34.834;2023-07-30T05:19:05;9.02;;;2.53;;
75937;SDS011;64615;32.062;34.834;2023-07-30T05:21:31;8.45;;;3.17;;
75937;SDS011;64615;32.062;34.834;2023-07-30T05:23:56;9.80;;;3.15;;
75937;SDS011;64615;32.062;34.834;2023-07-30T05:26:22;10.43;;;3.13;;
75937;SDS011;64615;32.062;34.834;2023-07-30T05:28:48;11.07;;;3.10;;
75937;SDS011;64615;32.062;34.834;2023-07-30T05:31:13;11.65;;;3.05;;
75937;SDS011;64615;32.062;34.834;2023-07-30T05:33:39;8.05;;;2.92;;
75937;SDS011;64615;32.062;34.834;2023-07-30T05:36:05;8.75;;;3.35;;
75937;SDS011;64615;32.062;34.834;2023-07-30T05:38:31;9.02;;;3.00;;
75937;SDS011;64615;32.062;34.834;2023-07-30T05:40:57;9.77;;;3.42;;
75937;SDS011;64615;32.062;34.834;2023-07-30T05:43:22;9.82;;;3.00;;
75937;SDS011;64615;32.062;34.834;2023-07-30T05:45:48;10.05;;;3.13;;
75937;SDS011;64615;32.062;34.834;2023-07-30T05:48:13;9.57;;;2.88;;
75937;SDS011;64615;32.062;34.834;2023-07-30T05:50:39;7.68;;;2.83;;
75937;SDS011;64615;32.062;34.834;2023-07-30T05:53:05;11.15;;;3.58;;
75937;SDS011;64615;32.062;34.834;2023-07-30T05:55:30;9.60;;;3.25;;
75937;SDS011;64615;32.062;34.834;2023-07-30T05:57:56;10.05;;;3.00;;
75937;SDS011;64615;32.062;34.834;2023-07-30T06:00:22;9.85;;;2.92;;
75937;SDS011;64615;32.062;34.834;2023-07-30T06:02:47;10.40;;;3.40;;
75937;SDS011;64615;32.062;34.834;2023-07-30T06:05:13;9.32;;;3.20;;
75937;SDS011;64615;32.062;34.834;2023-07-30T06:07:38;10.23;;;3.13;;
75937;SDS011;64615;32.062;34.834;2023-07-30T06:10:04;11.35;;;3.08;;
75937;SDS011;64615;32.062;34.834;2023-07-30T06:12:30;9.88;;;2.95;;
75937;SDS011;64615;32.062;34.834;2023-07-30T06:14:56;9.43;;;3.13;;
75937;SDS011;64615;32.062;34.834;2023-07-30T06:17:21;10.30;;;3.40;;
75937;SDS011;64615;32.062;34.834;2023-07-30T06:19:47;9.60;;;3.38;;
75937;SDS011;64615;32.062;34.834;2023-07-30T06:22:13;8.80;;;3.38;;
75937;SDS011;64615;32.062;34.834;2023-07-30T06:24:38;10.57;;;3.30;;
75937;SDS011;64615;32.062;34.834;2023-07-30T06:27:04;8.75;;;3.38;;
75937;SDS011;64615;32.062;34.834;2023-07-30T06:29:30;11.93;;;3.70;;
75937;SDS011;64615;32.062;34.834;2023-07-30T06:31:56;10.25;;;3.50;;
75937;SDS011;64615;32.062;34.834;2023-07-30T06:34:21;10.02;;;3.55;;
75937;SDS011;64615;32.062;34.834;2023-07-30T06:36:47;7.78;;;3.13;;
75937;SDS011;64615;32.062;34.834;2023-07-30T06:39:12;13.35;;;3.85;;
75937;SDS011;64615;32.062;34.834;2023-07-30T06:41:38;8.65;;;3.53;;
75937;SDS011;64615;32.062;34.834;2023-07-30T06:44:04;10.60;;;3.65;;
75937;SDS011;64615;32.062;34.834;2023-07-30T06:46:29;9.80;;;3.58;;
75937;SDS011;64615;32.062;34.834;2023-07-30T06:48:55;12.07;;;3.58;;
75937;SDS011;64615;32.062;34.834;2023-07-30T06:51:23;12.65;;;3.50;;
75937;SDS011;64615;32.062;34.834;2023-07-30T06:53:49;14.45;;;3.90;;
75937;SDS011;64615;32.062;34.834;2023-07-30T06:56:15;11.65;;;3.88;;
75937;SDS011;64615;32.062;34.834;2023-07-30T06:58:40;10.50;;;3.78;;
75937;SDS011;64615;32.062;34.834;2023-07-30T07:01:06;10.95;;;3.90;;
75937;SDS011;64615;32.062;34.834;2023-07-30T07:03:32;9.50;;;3.05;;
75937;SDS011;64615;32.062;34.834;2023-07-30T07:05:58;13.18;;;3.90;;
75937;SDS011;64615;32.062;34.834;2023-07-30T07:08:23;9.60;;;3.88;;
75937;SDS011;64615;32.062;34.834;2023-07-30T07:10:49;9.38;;;3.60;;
75937;SDS011;64615;32.062;34.834;2023-07-30T07:13:15;8.07;;;3.75;;
75937;SDS011;64615;32.062;34.834;2023-07-30T07:15:41;10.73;;;3.78;;
75937;SDS011;64615;32.062;34.834;2023-07-30T07:18:08;11.52;;;3.78;;
75937;SDS011;64615;32.062;34.834;2023-07-30T07:20:33;8.27;;;3.60;;
75937;SDS011;64615;32.062;34.834;2023-07-30T07:22:59;10.23;;;3.70;;
75937;SDS011;64615;32.062;34.834;2023-07-30T07:25:25;11.70;;;4.03;;
75937;SDS011;64615;32.062;34.834;2023-07-30T07:27:50;10.35;;;3.90;;
75937;SDS011;64615;32.062;34.834;2023-07-30T07:30:16;8.90;;;3.53;;
75937;SDS011;64615;32.062;34.834;2023-07-30T07:32:42;9.35;;;4.00;;
75937;SDS011;64615;32.062;34.834;2023-07-30T07:35:08;9.55;;;3.63;;
75937;SDS011;64615;32.062;34.834;2023-07-30T07:37:34;13.43;;;4.05;;
75937;SDS011;64615;32.062;34.834;2023-07-30T07:39:59;10.02;;;3.88;;
75937;SDS011;64615;32.062;34.834;2023-07-30T07:42:25;10.45;;;3.88;;
75937;SDS011;64615;32.062;34.834;2023-07-30T07:44:51;10.25;;;3.70;;
75937;SDS011;64615;32.062;34.834;2023-07-30T07:47:16;9.48;;;3.90;;
75937;SDS011;64615;32.062;34.834;2023-07-30T07:49:42;10.20;;;4.40;;
75937;SDS011;64615;32.062;34.834;2023-07-30T07:52:08;9.15;;;3.70;;
75937;SDS011;64615;32.062;34.834;2023-07-30T07:54:34;9.63;;;3.50;;
75937;SDS011;64615;32.062;34.834;2023-07-30T07:57:00;11.48;;;3.78;;
75937;SDS011;64615;32.062;34.834;2023-07-30T07:59:25;10.40;;;4.00;;
75937;SDS011;64615;32.062;34.834;2023-07-30T08:01:53;12.93;;;4.15;;
75937;SDS011;64615;32.062;34.834;2023-07-30T08:04:19;12.15;;;4.32;;
75937;SDS011;64615;32.062;34.834;2023-07-30T08:06:46;11.95;;;4.03;;
75937;SDS011;64615;32.062;34.834;2023-07-30T08:09:12;10.45;;;4.13;;
75937;SDS011;64615;32.062;34.834;2023-07-30T08:11:38;10.05;;;3.88;;
75937;SDS011;64615;32.062;34.834;2023-07-30T08:14:03;12.98;;;3.78;;
75937;SDS011;64615;32.062;34.834;2023-07-30T08:16:29;9.85;;;3.58;;
75937;SDS011;64615;32.062;34.834;2023-07-30T08:18:55;11.57;;;3.65;;
75937;SDS011;64615;32.062;34.834;2023-07-30T08:21:20;12.35;;;3.95;;
75937;SDS011;64615;32.062;34.834;2023-07-30T08:23:46;9.25;;;3.95;;
75937;SDS011;64615;32.062;34.834;2023-07-30T08:26:12;10.90;;;4.38;;
75937;SDS011;64615;32.062;34.834;2023-07-30T08:28:37;11.63;;;4.30;;
75937;SDS011;64615;32.062;34.834;2023-07-30T08:31:03;11.45;;;4.05;;
75937;SDS011;64615;32.062;34.834;2023-07-30T08:33:29;9.90;;;3.90;;
75937;SDS011;64615;32.062;34.834;2023-07-30T08:35:58;10.57;;;3.67;;
75937;SDS011;64615;32.062;34.834;2023-07-30T08:38:24;12.10;;;3.80;;
75937;SDS011;64615;32.062;34.834;2023-07-30T08:40:51;10.20;;;3.70;;
75937;SDS011;64615;32.062;34.834;2023-07-30T08:43:19;9.85;;;3.85;;
75937;SDS011;64615;32.062;34.834;2023-07-30T08:45:45;9.05;;;4.10;;
75937;SDS011;64615;32.062;34.834;2023-07-30T08:48:11;9.50;;;4.07;;
75937;SDS011;64615;32.062;34.834;2023-07-30T08:50:37;9.40;;;3.90;;
75937;SDS011;64615;32.062;34.834;2023-07-30T08:53:04;9.55;;;3.80;;
75937;SDS011;64615;32.062;34.834;2023-07-30T08:55:32;10.00;;;4.05;;
75937;SDS011;64615;32.062;34.834;2023-07-30T08:58:02;10.38;;;4.05;;
75937;SDS011;64615;32.062;34.834;2023-07-30T09:00:30;8.25;;;3.78;;
75937;SDS011;64615;32.062;34.834;2023-07-30T09:02:59;10.57;;;3.63;;
75937;SDS011;64615;32.062;34.834;2023-07-30T09:05:26;10.50;;;3.72;;
75937;SDS011;64615;32.062;34.834;2023-07-30T09:07:57;10.35;;;4.30;;
75937;SDS011;64615;32.062;34.834;2023-07-30T09:10:24;9.15;;;3.85;;
75937;SDS011;64615;32.062;34.834;2023-07-30T09:12:55;8.00;;;3.47;;
75937;SDS011;64615;32.062;34.834;2023-07-30T09:15:35;8.65;;;3.78;;
75937;SDS011;64615;32.062;34.834;2023-07-30T09:18:03;8.68;;;3.63;;
75937;SDS011;64615;32.062;34.834;2023-07-30T09:20:39;7.55;;;3.53;;
75937;SDS011;64615;32.062;34.834;2023-07-30T09:23:06;8.73;;;3.80;;
75937;SDS011;64615;32.062;34.834;2023-07-30T09:25:32;10.57;;;3.53;;
75937;SDS011;64615;32.062;34.834;2023-07-30T09:27:59;7.90;;;3.65;;
75937;SDS011;64615;32.062;34.834;2023-07-30T09:30:25;8.27;;;3.80;;
75937;SDS011;64615;32.062;34.834;2023-07-30T09:32:53;13.02;;;4.28;;
75937;SDS011;64615;32.062;34.834;2023-07-30T09:35:22;10.13;;;4.00;;
75937;SDS011;64615;32.062;34.834;2023-07-30T09:38:01;9.35;;;4.03;;
75937;SDS011;64615;32.062;34.834;2023-07-30T09:40:34;7.82;;;3.70;;
75937;SDS011;64615;32.062;34.834;2023-07-30T09:43:02;10.10;;;3.85;;
75937;SDS011;64615;32.062;34.834;2023-07-30T09:45:31;12.15;;;3.70;;
75937;SDS011;64615;32.062;34.834;2023-07-30T09:48:00;8.80;;;3.63;;
75937;SDS011;64615;32.062;34.834;2023-07-30T09:50:29;8.88;;;3.92;;
75937;SDS011;64615;32.062;34.834;2023-07-30T09:52:54;9.77;;;3.92;;
75937;SDS011;64615;32.062;34.834;2023-07-30T09:55:23;7.07;;;3.08;;
75937;SDS011;64615;32.062;34.834;2023-07-30T09:57:48;10.65;;;3.90;;
75937;SDS011;64615;32.062;34.834;2023-07-30T10:00:14;11.93;;;4.07;;
75937;SDS011;64615;32.062;34.834;2023-07-30T10:02:41;10.77;;;3.85;;
75937;SDS011;64615;32.062;34.834;2023-07-30T10:05:18;8.57;;;3.50;;
75937;SDS011;64615;32.062;34.834;2023-07-30T10:08:02;10.32;;;3.65;;
75937;SDS011;64615;32.062;34.834;2023-07-30T10:10:30;7.43;;;3.50;;
75937;SDS011;64615;32.062;34.834;2023-07-30T10:12:58;9.52;;;3.80;;
75937;SDS011;64615;32.062;34.834;2023-07-30T10:15:25;8.48;;;3.90;;
75937;SDS011;64615;32.062;34.834;2023-07-30T10:17:51;7.80;;;3.30;;
75937;SDS011;64615;32.062;34.834;2023-07-30T10:20:18;9.32;;;3.40;;
75937;SDS011;64615;32.062;34.834;2023-07-30T10:22:45;11.32;;;3.88;;
75937;SDS011;64615;32.062;34.834;2023-07-30T10:25:12;8.70;;;3.70;;
75937;SDS011;64615;32.062;34.834;2023-07-30T10:27:39;7.18;;;3.35;;
75937;SDS011;64615;32.062;34.834;2023-07-30T10:38:27;9.23;;;3.53;;
75937;SDS011;64615;32.062;34.834;2023-07-30T10:41:15;8.90;;;3.83;;
75937;SDS011;64615;32.062;34.834;2023-07-30T10:43:47;8.45;;;3.78;;
75937;SDS011;64615;32.062;34.834;2023-07-30T10:46:15;7.90;;;3.40;;
75937;SDS011;64615;32.062;34.834;2023-07-30T10:48:43;8.52;;;3.78;;
75937;SDS011;64615;32.062;34.834;2023-07-30T10:51:11;9.30;;;3.50;;
75937;SDS011;64615;32.062;34.834;2023-07-30T10:53:38;7.55;;;3.50;;
75937;SDS011;64615;32.062;34.834;2023-07-30T10:56:07;7.40;;;3.28;;
75937;SDS011;64615;32.062;34.834;2023-07-30T10:58:35;7.97;;;3.20;;
75937;SDS011;64615;32.062;34.834;2023-07-30T11:01:02;9.63;;;3.30;;
75937;SDS011;64615;32.062;34.834;2023-07-30T11:03:29;7.75;;;3.63;;
75937;SDS011;64615;32.062;34.834;2023-07-30T11:05:56;9.35;;;3.20;;
75937;SDS011;64615;32.062;34.834;2023-07-30T11:08:32;8.73;;;3.28;;
75937;SDS011;64615;32.062;34.834;2023-07-30T11:11:02;10.05;;;3.67;;
75937;SDS011;64615;32.062;34.834;2023-07-30T11:13:28;9.93;;;3.47;;
75937;SDS011;64615;32.062;34.834;2023-07-30T11:15:53;12.32;;;4.10;;
75937;SDS011;64615;32.062;34.834;2023-07-30T11:18:19;8.00;;;3.67;;
75937;SDS011;64615;32.062;34.834;2023-07-30T11:20:45;8.50;;;3.30;;
75937;SDS011;64615;32.062;34.834;2023-07-30T11:23:19;10.82;;;3.53;;
75937;SDS011;64615;32.062;34.834;2023-07-30T11:25:47;10.65;;;3.42;;
75937;SDS011;64615;32.062;34.834;2023-07-30T11:28:14;8.93;;;3.50;;
75937;SDS011;64615;32.062;34.834;2023-07-30T11:30:51;7.75;;;3.22;;
75937;SDS011;64615;32.062;34.834;2023-07-30T11:33:17;8.93;;;3.60;;
75937;SDS011;64615;32.062;34.834;2023-07-30T11:35:43;9.25;;;3.40;;
75937;SDS011;64615;32.062;34.834;2023-07-30T11:38:09;8.27;;;3.42;;
75937;SDS011;64615;32.062;34.834;2023-07-30T11:40:35;7.72;;;3.25;;
75937;SDS011;64615;32.062;34.834;2023-07-30T11:43:02;10.07;;;3.45;;
75937;SDS011;64615;32.062;34.834;2023-07-30T11:45:29;8.10;;;3.17;;
75937;SDS011;64615;32.062;34.834;2023-07-30T11:47:55;8.73;;;3.22;;
75937;SDS011;64615;32.062;34.834;2023-07-30T11:50:46;9.57;;;3.50;;
75937;SDS011;64615;32.062;34.834;2023-07-30T11:53:13;8.48;;;3.22;;
75937;SDS011;64615;32.062;34.834;2023-07-30T11:55:40;8.52;;;3.67;;
75937;SDS011;64615;32.062;34.834;2023-07-30T11:58:07;7.13;;;3.00;;
75937;SDS011;64615;32.062;34.834;2023-07-30T12:00:33;8.75;;;3.50;;
75937;SDS011;64615;32.062;34.834;2023-07-30T12:03:05;7.72;;;3.28;;
75937;SDS011;64615;32.062;34.834;2023-07-30T12:05:34;7.13;;;3.42;;
75937;SDS011;64615;32.062;34.834;2023-07-30T12:08:02;8.43;;;3.17;;
75937;SDS011;64615;32.062;34.834;2023-07-30T12:10:44;6.95;;;3.15;;
75937;SDS011;64615;32.062;34.834;2023-07-30T12:13:12;9.63;;;3.53;;
75937;SDS011;64615;32.062;34.834;2023-07-30T12:15:42;7.20;;;3.35;;
75937;SDS011;64615;32.062;34.834;2023-07-30T12:18:21;7.72;;;3.13;;
75937;SDS011;64615;32.062;34.834;2023-07-30T12:23:15;9.82;;;3.50;;
75937;SDS011;64615;32.062;34.834;2023-07-30T12:25:41;7.78;;;3.10;;
75937;SDS011;64615;32.062;34.834;2023-07-30T12:28:07;8.32;;;3.42;;
75937;SDS011;64615;32.062;34.834;2023-07-30T12:30:33;8.20;;;3.03;;
75937;SDS011;64615;32.062;34.834;2023-07-30T12:33:00;7.50;;;3.40;;
75937;SDS011;64615;32.062;34.834;2023-07-30T12:35:26;9.23;;;3.53;;
75937;SDS011;64615;32.062;34.834;2023-07-30T12:37:52;8.10;;;3.40;;
75937;SDS011;64615;32.062;34.834;2023-07-30T12:40:17;8.30;;;3.17;;
75937;SDS011;64615;32.062;34.834;2023-07-30T12:42:43;7.07;;;3.03;;
75937;SDS011;64615;32.062;34.834;2023-07-30T12:45:09;6.88;;;3.13;;
75937;SDS011;64615;32.062;34.834;2023-07-30T12:47:35;7.68;;;3.42;;
75937;SDS011;64615;32.062;34.834;2023-07-30T12:50:02;7.18;;;3.28;;
75937;SDS011;64615;32.062;34.834;2023-07-30T12:52:28;7.38;;;3.20;;
75937;SDS011;64615;32.062;34.834;2023-07-30T12:54:54;7.50;;;2.72;;
75937;SDS011;64615;32.062;34.834;2023-07-30T12:57:19;7.05;;;3.00;;
75937;SDS011;64615;32.062;34.834;2023-07-30T12:59:45;8.88;;;2.83;;
75937;SDS011;64615;32.062;34.834;2023-07-30T13:02:11;6.05;;;2.88;;
75937;SDS011;64615;32.062;34.834;2023-07-30T13:04:36;7.55;;;3.30;;
75937;SDS011;64615;32.062;34.834;2023-07-30T13:07:02;5.57;;;2.60;;
75937;SDS011;64615;32.062;34.834;2023-07-30T13:09:28;5.00;;;2.70;;
75937;SDS011;64615;32.062;34.834;2023-07-30T13:11:54;5.50;;;2.72;;
75937;SDS011;64615;32.062;34.834;2023-07-30T13:14:19;7.65;;;3.10;;
75937;SDS011;64615;32.062;34.834;2023-07-30T13:16:45;7.40;;;3.00;;
75937;SDS011;64615;32.062;34.834;2023-07-30T13:19:10;5.82;;;2.80;;
75937;SDS011;64615;32.062;34.834;2023-07-30T13:21:36;6.00;;;2.88;;
75937;SDS011;64615;32.062;34.834;2023-07-30T13:24:02;7.97;;;2.90;;
75937;SDS011;64615;32.062;34.834;2023-07-30T13:26:28;6.93;;;3.03;;
75937;SDS011;64615;32.062;34.834;2023-07-30T13:28:54;6.65;;;2.95;;
75937;SDS011;64615;32.062;34.834;2023-07-30T13:31:19;7.15;;;3.20;;
75937;SDS011;64615;32.062;34.834;2023-07-30T13:33:45;7.38;;;3.05;;
75937;SDS011;64615;32.062;34.834;2023-07-30T13:36:12;7.00;;;2.97;;
75937;SDS011;64615;32.062;34.834;2023-07-30T13:38:38;7.90;;;3.10;;
75937;SDS011;64615;32.062;34.834;2023-07-30T13:41:04;8.60;;;3.13;;
75937;SDS011;64615;32.062;34.834;2023-07-30T13:43:31;7.93;;;2.85;;
75937;SDS011;64615;32.062;34.834;2023-07-30T13:45:57;8.90;;;2.90;;
75937;SDS011;64615;32.062;34.834;2023-07-30T13:48:23;7.18;;;2.95;;
75937;SDS011;64615;32.062;34.834;2023-07-30T13:50:52;5.32;;;2.50;;
75937;SDS011;64615;32.062;34.834;2023-07-30T13:53:18;5.90;;;2.60;;
75937;SDS011;64615;32.062;34.834;2023-07-30T13:55:44;7.75;;;2.88;;
75937;SDS011;64615;32.062;34.834;2023-07-30T13:58:10;6.13;;;3.00;;
75937;SDS011;64615;32.062;34.834;2023-07-30T14:00:36;6.85;;;3.05;;
75937;SDS011;64615;32.062;34.834;2023-07-30T14:03:02;8.32;;;2.90;;
75937;SDS011;64615;32.062;34.834;2023-07-30T14:05:27;7.25;;;2.92;;
75937;SDS011;64615;32.062;34.834;2023-07-30T14:07:53;8.02;;;2.67;;
75937;SDS011;64615;32.062;34.834;2023-07-30T14:12:50;7.97;;;2.78;;
75937;SDS011;64615;32.062;34.834;2023-07-30T14:15:15;5.68;;;2.53;;
75937;SDS011;64615;32.062;34.834;2023-07-30T14:17:41;6.18;;;2.60;;
75937;SDS011;64615;32.062;34.834;2023-07-30T14:20:07;7.38;;;2.60;;
75937;SDS011;64615;32.062;34.834;2023-07-30T14:22:34;5.28;;;2.65;;
75937;SDS011;64615;32.062;34.834;2023-07-30T14:25:01;7.10;;;2.78;;
75937;SDS011;64615;32.062;34.834;2023-07-30T14:27:30;7.18;;;2.95;;
75937;SDS011;64615;32.062;34.834;2023-07-30T14:29:56;6.30;;;2.65;;
75937;SDS011;64615;32.062;34.834;2023-07-30T14:32:22;8.20;;;2.55;;
75937;SDS011;64615;32.062;34.834;2023-07-30T14:34:48;6.50;;;2.63;;
75937;SDS011;64615;32.062;34.834;2023-07-30T14:37:14;5.65;;;2.47;;
75937;SDS011;64615;32.062;34.834;2023-07-30T14:39:40;5.47;;;2.75;;
75937;SDS011;64615;32.062;34.834;2023-07-30T14:42:06;4.75;;;2.35;;